createdAt,value
2018-08-16T00:04:24.897Z,10.40
2018-08-16T00:07:00.595Z,9.17
2018-08-16T00:09:36.292Z,9.70
2018-08-16T00:12:12.079Z,9.97
2018-08-16T00:14:47.811Z,9.18
2018-08-16T00:19:57.246Z,9.90
2018-08-16T00:22:32.842Z,10.23
2018-08-16T00:25:09.435Z,9.70
2018-08-16T00:27:45.187Z,9.25
2018-08-16T00:30:24.392Z,8.90
2018-08-16T00:33:00.187Z,10.47
2018-08-16T00:35:35.826Z,9.30
2018-08-16T00:38:12.512Z,9.90
2018-08-16T00:40:48.184Z,9.55
2018-08-16T00:43:24.087Z,9.95
2018-08-16T00:46:00.032Z,9.60
2018-08-16T00:48:35.800Z,10.53
2018-08-16T00:51:11.616Z,10.63
2018-08-16T00:56:21.283Z,9.98
2018-08-16T00:58:57.204Z,10.50
2018-08-16T01:01:33.036Z,11.57
2018-08-16T01:04:08.840Z,11.33
2018-08-16T01:06:44.601Z,12.13
2018-08-16T01:09:20.213Z,12.30
2018-08-16T01:11:55.803Z,11.83
2018-08-16T01:14:31.242Z,11.60
2018-08-16T01:17:07.202Z,11.15
2018-08-16T01:19:43.105Z,11.60
2018-08-16T01:22:18.976Z,11.00
2018-08-16T01:24:54.399Z,11.60
2018-08-16T01:27:30.192Z,11.22
2018-08-16T01:30:06.162Z,11.55
2018-08-16T01:32:42.250Z,12.17
2018-08-16T01:35:18.185Z,12.65
2018-08-16T01:37:54.132Z,11.90
2018-08-16T01:40:30.440Z,12.35
2018-08-16T01:43:06.313Z,12.23
2018-08-16T01:45:42.190Z,12.17
2018-08-16T01:48:18.067Z,11.40
2018-08-16T01:50:53.838Z,11.10
2018-08-16T01:56:04.353Z,11.73
2018-08-16T01:58:40.438Z,11.17
2018-08-16T02:03:50.426Z,12.10
2018-08-16T02:06:26.271Z,11.25
2018-08-16T02:09:02.353Z,10.97
2018-08-16T02:11:38.183Z,13.13
2018-08-16T02:14:14.012Z,12.23
2018-08-16T02:16:50.605Z,12.43
2018-08-16T02:19:26.288Z,12.30
2018-08-16T02:22:02.185Z,13.93
2018-08-16T02:24:38.070Z,14.18
2018-08-16T02:27:13.760Z,14.57
2018-08-16T02:29:49.483Z,14.95
2018-08-16T02:32:25.121Z,13.83
2018-08-16T02:35:01.122Z,13.87
2018-08-16T02:37:36.884Z,13.97
2018-08-16T02:42:47.659Z,13.78
2018-08-16T02:45:23.489Z,14.10
2018-08-16T02:47:59.288Z,12.90
2018-08-16T02:50:35.925Z,13.37
2018-08-16T02:53:12.065Z,13.63
2018-08-16T02:55:47.874Z,12.93
2018-08-16T02:58:23.696Z,13.17
2018-08-16T03:01:00.194Z,12.63
2018-08-16T03:03:36.216Z,12.35
2018-08-16T03:06:12.585Z,11.97
2018-08-16T03:08:48.561Z,12.60
2018-08-16T03:11:24.650Z,12.63
2018-08-16T03:14:00.714Z,11.65
2018-08-16T03:16:37.109Z,12.10
2018-08-16T03:19:13.569Z,12.00
2018-08-16T03:21:49.481Z,12.33
2018-08-16T03:24:25.847Z,12.13
2018-08-16T03:27:02.197Z,11.80
2018-08-16T03:29:38.457Z,11.90
2018-08-16T03:32:14.676Z,11.57
2018-08-16T03:34:51.802Z,11.63
2018-08-16T03:37:27.967Z,11.08
2018-08-16T03:40:04.236Z,11.00
2018-08-16T03:42:41.402Z,11.50
2018-08-16T03:45:17.575Z,11.43
2018-08-16T03:50:27.970Z,11.50
2018-08-16T03:53:04.278Z,12.53
2018-08-16T03:55:41.392Z,13.03
2018-08-16T03:58:17.612Z,12.07
2018-08-16T04:00:53.969Z,11.20
2018-08-16T04:03:31.275Z,12.03
2018-08-16T04:06:07.560Z,12.07
2018-08-16T04:08:44.662Z,11.97
2018-08-16T04:11:20.882Z,11.28
2018-08-16T04:14:01.589Z,11.53
2018-08-16T04:16:37.653Z,10.87
2018-08-16T04:19:14.692Z,11.00
2018-08-16T04:21:51.086Z,10.88
2018-08-16T04:24:28.215Z,10.80
2018-08-16T04:27:05.193Z,11.50
2018-08-16T04:29:41.590Z,11.33
2018-08-16T04:32:17.819Z,11.57
2018-08-16T04:34:53.988Z,11.07
2018-08-16T04:37:30.197Z,12.07
2018-08-16T04:40:06.365Z,11.30
2018-08-16T04:42:42.608Z,11.60
2018-08-16T04:45:18.596Z,11.97
2018-08-16T04:47:54.718Z,11.40
2018-08-16T04:50:30.602Z,12.97
2018-08-16T04:53:07.825Z,12.10
2018-08-16T04:55:43.831Z,12.60
2018-08-16T04:58:20.964Z,13.70
2018-08-16T05:00:58.616Z,12.00
2018-08-16T05:03:36.082Z,12.90
2018-08-16T05:06:12.626Z,12.50
2018-08-16T05:08:48.692Z,12.65
2018-08-16T05:11:25.617Z,13.30
2018-08-16T05:14:01.925Z,13.22
2018-08-16T05:16:39.286Z,12.55
2018-08-16T05:19:15.725Z,13.70
2018-08-16T05:21:52.347Z,14.33
2018-08-16T05:24:29.541Z,14.23
2018-08-16T05:27:07.344Z,14.93
2018-08-16T05:29:43.633Z,14.97
2018-08-16T05:32:20.433Z,15.27
2018-08-16T05:34:56.723Z,16.25
2018-08-16T05:37:32.749Z,16.07
2018-08-16T05:42:45.864Z,17.53
2018-08-16T05:45:24.130Z,16.62
2018-08-16T05:48:01.450Z,18.90
2018-08-16T05:50:38.887Z,18.80
2018-08-16T05:53:16.710Z,19.03
2018-08-16T05:55:53.965Z,20.43
2018-08-16T05:58:31.291Z,20.33
2018-08-16T06:01:09.079Z,19.55
2018-08-16T06:03:45.876Z,19.25
2018-08-16T06:09:01.009Z,22.13
2018-08-16T06:11:38.135Z,22.57
2018-08-16T06:14:15.634Z,20.77
2018-08-16T06:16:53.278Z,22.90
2018-08-16T06:19:30.885Z,20.62
2018-08-16T06:22:08.776Z,22.30
2018-08-16T06:24:46.699Z,22.27
2018-08-16T06:27:23.753Z,22.50
2018-08-16T06:30:01.019Z,23.37
2018-08-16T06:32:38.026Z,23.53
2018-08-16T06:35:15.643Z,22.43
2018-08-16T06:37:53.154Z,23.10
2018-08-16T06:40:30.181Z,23.20
2018-08-16T06:43:07.709Z,23.67
2018-08-16T06:45:45.411Z,24.92
2018-08-16T06:48:22.526Z,17.07
2018-08-16T06:50:59.952Z,18.93
2018-08-16T06:53:37.265Z,17.27
2018-08-16T06:56:14.160Z,14.77
2018-08-16T06:58:51.466Z,13.50
2018-08-16T07:01:28.794Z,12.98
2018-08-16T07:04:06.461Z,11.87
2018-08-16T07:06:42.945Z,12.60
2018-08-16T07:09:19.731Z,15.97
2018-08-16T07:14:31.878Z,12.23
2018-08-16T07:17:08.948Z,12.70
2018-08-16T07:19:46.254Z,11.73
2018-08-16T07:22:22.924Z,9.90
2018-08-16T07:27:35.532Z,9.65
2018-08-16T07:30:13.554Z,9.53
2018-08-16T07:32:50.456Z,9.40
2018-08-16T07:35:27.525Z,10.08
2018-08-16T07:38:04.787Z,11.13
2018-08-16T07:40:42.000Z,12.27
2018-08-16T07:45:55.139Z,14.47
2018-08-16T07:48:33.141Z,10.30
2018-08-16T07:51:10.379Z,10.10
2018-08-16T07:53:47.420Z,10.38
2018-08-16T07:56:24.370Z,10.40
2018-08-16T07:59:01.728Z,11.63
2018-08-16T08:01:38.934Z,9.80
2018-08-16T08:04:16.548Z,9.97
2018-08-16T08:06:53.446Z,11.20
2018-08-16T08:09:30.681Z,10.40
2018-08-16T08:12:07.759Z,10.67
2018-08-16T08:14:45.308Z,10.28
2018-08-16T08:17:22.550Z,10.93
2018-08-16T08:19:59.981Z,10.93
2018-08-16T08:22:36.962Z,11.03
2018-08-16T08:25:15.595Z,12.13
2018-08-16T08:27:53.231Z,11.03
2018-08-16T08:30:30.569Z,11.97
2018-08-16T08:33:07.577Z,11.33
2018-08-16T08:35:44.103Z,11.00
2018-08-16T08:38:22.395Z,11.55
2018-08-16T08:40:58.980Z,11.50
2018-08-16T08:43:49.168Z,11.10
2018-08-16T08:46:26.407Z,10.95
2018-08-16T08:49:03.275Z,11.17
2018-08-16T08:51:39.766Z,11.17
2018-08-16T08:54:36.896Z,10.40
2018-08-16T08:57:27.356Z,11.65
2018-08-16T09:00:04.761Z,10.38
2018-08-16T09:02:41.900Z,10.90
2018-08-16T09:05:18.997Z,9.77
2018-08-16T09:07:56.585Z,9.98
2018-08-16T09:11:15.581Z,10.65
2018-08-16T09:14:09.037Z,11.90
2018-08-16T09:16:46.577Z,11.38
2018-08-16T09:19:23.992Z,11.20
2018-08-16T09:22:01.594Z,11.90
2018-08-16T09:24:38.460Z,11.78
2018-08-16T09:27:16.021Z,11.90
2018-08-16T09:30:22.228Z,12.37
2018-08-16T09:33:12.467Z,12.13
2018-08-16T09:35:49.587Z,11.65
2018-08-16T09:38:26.609Z,11.85
2018-08-16T09:41:04.068Z,11.07
2018-08-16T09:43:41.292Z,12.40
2018-08-16T09:48:04.926Z,13.20
2018-08-16T09:50:41.583Z,11.83
2018-08-16T09:55:53.632Z,12.73
2018-08-16T09:58:31.042Z,12.13
2018-08-16T10:01:14.126Z,13.00
2018-08-16T10:03:51.982Z,12.55
2018-08-16T10:06:29.358Z,12.63
2018-08-16T10:09:07.387Z,12.25
2018-08-16T10:11:45.380Z,12.87
2018-08-16T10:14:22.823Z,12.70
2018-08-16T10:17:00.076Z,12.97
2018-08-16T10:19:37.368Z,12.33
2018-08-16T10:22:14.402Z,12.28
2018-08-16T10:24:51.713Z,12.45
2018-08-16T10:27:28.612Z,12.57
2018-08-16T10:30:05.805Z,13.13
2018-08-16T10:32:42.372Z,12.80
2018-08-16T10:35:18.930Z,11.60
2018-08-16T10:37:55.949Z,12.35
2018-08-16T10:40:32.805Z,12.43
2018-08-16T10:43:09.784Z,13.40
2018-08-16T10:45:47.353Z,13.53
2018-08-16T10:48:24.345Z,13.47
2018-08-16T10:51:01.357Z,13.10
2018-08-16T10:53:38.047Z,11.90
2018-08-16T10:56:15.351Z,13.63
2018-08-16T10:58:53.002Z,13.35
2018-08-16T11:04:05.411Z,12.37
2018-08-16T11:06:42.343Z,13.10
2018-08-16T11:09:19.094Z,13.57
2018-08-16T11:14:31.799Z,13.17
2018-08-16T11:17:09.276Z,14.37
2018-08-16T11:19:46.633Z,12.80
2018-08-16T11:22:23.356Z,13.30
2018-08-16T11:25:01.130Z,13.30
2018-08-16T11:27:38.284Z,13.50
2018-08-16T11:31:21.624Z,13.43
2018-08-16T11:33:58.403Z,12.60
2018-08-16T11:36:35.487Z,12.63
2018-08-16T11:39:13.103Z,13.35
2018-08-16T11:41:50.627Z,13.10
2018-08-16T11:44:27.743Z,14.03
2018-08-16T11:47:04.830Z,13.57
2018-08-16T11:49:41.679Z,13.90
2018-08-16T11:54:54.847Z,12.50
2018-08-16T11:57:31.484Z,14.47
2018-08-16T12:00:09.060Z,11.93
2018-08-16T12:02:45.631Z,13.40
2018-08-16T12:05:22.865Z,11.70
2018-08-16T12:07:59.433Z,12.17
2018-08-16T12:10:37.050Z,11.97
2018-08-16T12:13:13.643Z,12.17
2018-08-16T12:15:50.294Z,12.47
2018-08-16T12:18:27.848Z,12.63
2018-08-16T12:21:04.730Z,12.87
2018-08-16T12:23:41.867Z,12.50
2018-08-16T12:26:19.299Z,11.87
2018-08-16T12:28:56.525Z,12.63
2018-08-16T12:31:33.905Z,12.13
2018-08-16T12:34:10.638Z,12.33
2018-08-16T12:36:47.652Z,12.20
2018-08-16T12:39:24.703Z,13.33
2018-08-16T12:42:01.149Z,11.87
2018-08-16T12:44:38.170Z,12.70
2018-08-16T12:47:14.784Z,12.77
2018-08-16T12:49:51.838Z,12.17
2018-08-16T12:52:29.871Z,13.60
2018-08-16T12:55:07.332Z,11.55
2018-08-16T12:57:44.337Z,11.93
2018-08-16T13:00:21.922Z,11.23
2018-08-16T13:02:58.980Z,11.90
2018-08-16T13:05:36.362Z,11.30
2018-08-16T13:08:14.347Z,12.70
2018-08-16T13:10:50.891Z,12.37
2018-08-16T13:13:28.410Z,12.77
2018-08-16T13:16:05.701Z,13.07
2018-08-16T13:18:42.327Z,13.33
2018-08-16T13:21:19.651Z,13.40
2018-08-16T13:23:57.072Z,12.90
2018-08-16T13:26:34.543Z,13.43
2018-08-16T13:29:11.879Z,12.35
2018-08-16T13:31:48.464Z,11.30
2018-08-16T13:34:25.306Z,11.38
2018-08-16T13:37:02.596Z,12.15
2018-08-16T13:39:40.029Z,11.93
2018-08-16T13:42:17.573Z,12.20
2018-08-16T13:44:54.577Z,12.90
2018-08-16T13:47:31.305Z,12.77
2018-08-16T13:50:07.931Z,12.30
2018-08-16T13:55:20.707Z,13.25
2018-08-16T13:57:57.918Z,13.60
2018-08-16T14:00:35.074Z,12.53
2018-08-16T14:03:11.531Z,12.73
2018-08-16T14:05:48.817Z,13.48
2018-08-16T14:08:25.827Z,13.70
2018-08-16T14:11:02.500Z,13.10
2018-08-16T14:13:39.745Z,12.70
2018-08-16T14:16:17.073Z,12.88
2018-08-16T14:18:54.365Z,13.93
2018-08-16T14:21:31.674Z,12.90
2018-08-16T14:24:08.457Z,11.95
2018-08-16T14:26:45.782Z,12.70
2018-08-16T14:29:23.828Z,11.55
2018-08-16T14:32:01.452Z,12.30
2018-08-16T14:34:38.533Z,11.83
2018-08-16T14:37:15.091Z,12.80
2018-08-16T14:39:52.307Z,13.83
2018-08-16T14:42:30.243Z,12.03
2018-08-16T14:45:07.300Z,13.27
2018-08-16T14:47:44.869Z,12.47
2018-08-16T14:50:22.499Z,13.50
2018-08-16T14:52:59.840Z,16.30
2018-08-16T14:55:36.790Z,17.37
2018-08-16T14:58:14.901Z,18.55
2018-08-16T15:00:51.428Z,17.10
2018-08-16T15:03:28.813Z,18.50
2018-08-16T15:06:05.779Z,20.02
2018-08-16T15:08:42.608Z,21.17
2018-08-16T15:11:20.430Z,21.73
2018-08-16T15:13:57.283Z,21.63
2018-08-16T15:16:35.236Z,22.85
2018-08-16T15:19:12.014Z,23.45
2018-08-16T15:21:49.084Z,23.70
2018-08-16T15:24:26.871Z,24.40
2018-08-16T15:27:04.000Z,23.38
2018-08-16T15:30:47.302Z,24.92
2018-08-16T15:33:23.848Z,25.47
2018-08-16T15:36:01.143Z,24.52
2018-08-16T15:38:38.346Z,24.00
2018-08-16T15:41:16.229Z,25.23
2018-08-16T15:43:52.889Z,24.93
2018-08-16T15:46:30.388Z,24.27
2018-08-16T15:49:08.768Z,24.50
2018-08-16T15:51:45.879Z,23.73
2018-08-16T15:54:23.305Z,22.90
2018-08-16T15:57:00.614Z,23.52
2018-08-16T15:59:38.236Z,22.42
2018-08-16T16:02:15.347Z,23.00
2018-08-16T16:04:52.342Z,21.20
2018-08-16T16:07:29.763Z,21.27
2018-08-16T16:10:07.291Z,21.65
2018-08-16T16:12:43.882Z,21.20
2018-08-16T16:15:21.237Z,21.80
2018-08-16T16:17:58.426Z,20.80
2018-08-16T16:20:35.582Z,19.87
2018-08-16T16:23:13.524Z,20.55
2018-08-16T16:25:51.119Z,20.17
2018-08-16T16:28:28.411Z,20.00
2018-08-16T16:31:05.728Z,20.32
2018-08-16T16:33:43.352Z,20.47
2018-08-16T16:36:21.145Z,19.70
2018-08-16T16:38:58.437Z,19.70
2018-08-16T16:41:35.592Z,19.07
2018-08-16T16:44:13.473Z,19.35
2018-08-16T16:46:50.320Z,20.40
2018-08-16T16:49:27.521Z,21.07
2018-08-16T16:52:04.859Z,18.57
2018-08-16T16:54:43.117Z,17.10
2018-08-16T16:57:20.473Z,16.17
2018-08-16T16:59:58.490Z,18.82
2018-08-16T17:02:35.532Z,18.48
2018-08-16T17:05:12.631Z,19.77
2018-08-16T17:07:50.116Z,19.10
2018-08-16T17:10:27.663Z,19.17
2018-08-16T17:13:05.139Z,19.65
2018-08-16T17:15:42.423Z,19.50
2018-08-16T17:18:19.379Z,19.73
2018-08-16T17:20:57.157Z,19.35
2018-08-16T17:23:34.571Z,18.03
2018-08-16T17:26:11.863Z,18.25
2018-08-16T17:28:49.418Z,18.45
2018-08-16T17:31:26.264Z,18.07
2018-08-16T17:34:02.879Z,18.60
2018-08-16T17:36:40.413Z,19.57
2018-08-16T17:39:18.171Z,16.32
2018-08-16T17:41:55.067Z,16.40
2018-08-16T17:44:32.128Z,17.90
2018-08-16T17:47:10.383Z,18.45
2018-08-16T17:49:47.374Z,17.73
2018-08-16T17:52:23.627Z,18.30
2018-08-16T17:55:01.100Z,18.20
2018-08-16T17:57:38.138Z,18.35
2018-08-16T18:00:15.562Z,17.33
2018-08-16T18:02:53.170Z,17.48
2018-08-16T18:05:30.437Z,16.42
2018-08-16T18:08:07.691Z,17.65
2018-08-16T18:10:46.366Z,17.87
2018-08-16T18:13:23.868Z,18.50
2018-08-16T18:16:01.393Z,18.73
2018-08-16T18:18:38.500Z,19.35
2018-08-16T18:21:16.344Z,19.53
2018-08-16T18:23:53.926Z,18.95
2018-08-16T18:26:31.176Z,19.80
2018-08-16T18:29:08.201Z,19.35
2018-08-16T18:31:45.856Z,19.02
2018-08-16T18:34:23.371Z,17.75
2018-08-16T18:37:00.662Z,18.60
2018-08-16T18:39:37.996Z,18.25
2018-08-16T18:42:15.291Z,18.35
2018-08-16T18:44:53.327Z,18.92
2018-08-16T18:47:30.450Z,18.97
2018-08-16T18:50:07.584Z,18.67
2018-08-16T18:52:45.395Z,17.80
2018-08-16T18:55:22.938Z,19.43
2018-08-16T18:58:00.355Z,18.30
2018-08-16T19:00:37.582Z,18.80
2018-08-16T19:03:15.102Z,19.27
2018-08-16T19:05:52.050Z,18.42
2018-08-16T19:08:29.574Z,18.33
2018-08-16T19:11:06.808Z,20.05
2018-08-16T19:13:43.649Z,18.70
2018-08-16T19:16:21.151Z,19.27
2018-08-16T19:18:58.386Z,18.57
2018-08-16T19:21:36.168Z,19.33
2018-08-16T19:24:13.090Z,18.80
2018-08-16T19:26:50.585Z,18.33
2018-08-16T19:29:27.959Z,19.37
2018-08-16T19:32:06.195Z,19.57
2018-08-16T19:34:43.418Z,18.60
2018-08-16T19:37:20.314Z,19.05
2018-08-16T19:39:57.092Z,18.27
2018-08-16T19:42:34.685Z,18.62
2018-08-16T19:45:11.650Z,18.42
2018-08-16T19:47:49.200Z,18.42
2018-08-16T19:50:26.218Z,18.65
2018-08-16T19:53:03.138Z,17.70
2018-08-16T19:55:40.429Z,18.32
2018-08-16T19:58:17.513Z,18.60
2018-08-16T20:00:54.400Z,18.30
2018-08-16T20:03:32.218Z,18.23
2018-08-16T20:06:09.653Z,19.13
2018-08-16T20:08:47.536Z,18.98
2018-08-16T20:11:23.923Z,18.25
2018-08-16T20:14:01.708Z,17.85
2018-08-16T20:16:39.215Z,18.07
2018-08-16T20:19:15.966Z,18.33
2018-08-16T20:21:53.235Z,17.70
2018-08-16T20:24:30.209Z,17.50
2018-08-16T20:27:07.570Z,18.13
2018-08-16T20:29:45.048Z,18.43
2018-08-16T20:32:22.443Z,17.60
2018-08-16T20:34:59.893Z,18.45
2018-08-16T20:37:37.714Z,18.42
2018-08-16T20:40:15.405Z,18.57
2018-08-16T20:42:52.623Z,18.43
2018-08-16T20:45:30.423Z,17.48
2018-08-16T20:48:07.204Z,17.57
2018-08-16T20:50:45.574Z,17.80
2018-08-16T20:53:22.654Z,17.42
2018-08-16T20:56:00.207Z,18.50
2018-08-16T20:58:37.215Z,18.20
2018-08-16T21:01:14.127Z,17.55
2018-08-16T21:03:50.992Z,17.83
2018-08-16T21:06:27.351Z,18.75
2018-08-16T21:09:04.226Z,16.70
2018-08-16T21:11:42.211Z,17.80
2018-08-16T21:14:19.655Z,17.90
2018-08-16T21:16:57.082Z,17.60
2018-08-16T21:19:35.222Z,17.80
2018-08-16T21:22:11.878Z,17.47
2018-08-16T21:24:49.384Z,17.83
2018-08-16T21:27:26.232Z,18.53
2018-08-16T21:30:03.355Z,17.90
2018-08-16T21:32:40.479Z,18.53
2018-08-16T21:35:18.139Z,17.82
2018-08-16T21:37:55.573Z,18.10
2018-08-16T21:40:32.265Z,17.50
2018-08-16T21:43:09.598Z,18.33
2018-08-16T21:45:46.889Z,17.98
2018-08-16T21:48:23.264Z,17.60
2018-08-16T21:51:00.900Z,18.45
2018-08-16T21:53:37.834Z,17.57
2018-08-16T21:56:15.013Z,17.85
2018-08-16T21:58:52.237Z,17.50
2018-08-16T22:01:28.463Z,17.43
2018-08-16T22:04:06.599Z,18.17
2018-08-16T22:06:56.820Z,18.50
2018-08-16T22:09:33.639Z,18.05
2018-08-16T22:12:10.603Z,18.25
2018-08-16T22:14:47.371Z,18.93
2018-08-16T22:17:24.282Z,18.33
2018-08-16T22:20:01.470Z,18.70
2018-08-16T22:22:38.367Z,18.57
2018-08-16T22:25:15.446Z,18.33
2018-08-16T22:27:52.495Z,17.63
2018-08-16T22:30:29.717Z,17.73
2018-08-16T22:33:07.129Z,17.32
2018-08-16T22:35:43.840Z,15.43
2018-08-16T22:38:20.905Z,14.93
2018-08-16T22:40:58.455Z,14.20
2018-08-16T22:43:34.280Z,12.53
2018-08-16T22:46:10.124Z,12.87
2018-08-16T22:48:46.153Z,12.07
2018-08-16T22:51:22.172Z,12.58
2018-08-16T22:53:58.176Z,12.50
2018-08-16T22:56:34.228Z,10.50
2018-08-16T22:59:10.118Z,10.97
2018-08-16T23:01:46.157Z,11.97
2018-08-16T23:04:22.023Z,11.70
2018-08-16T23:06:58.176Z,10.68
2018-08-16T23:09:34.067Z,11.00
2018-08-16T23:12:10.067Z,10.63
2018-08-16T23:14:46.266Z,9.87
2018-08-16T23:17:22.056Z,10.37
2018-08-16T23:19:58.111Z,10.43
2018-08-16T23:22:34.109Z,9.37
2018-08-16T23:25:10.696Z,10.00
2018-08-16T23:27:46.627Z,9.68
2018-08-16T23:32:56.283Z,9.53
2018-08-16T23:35:32.159Z,9.13
2018-08-16T23:38:08.251Z,8.57
2018-08-16T23:40:43.804Z,8.33
2018-08-16T23:43:20.283Z,10.60
2018-08-16T23:45:56.238Z,8.20
2018-08-16T23:48:35.139Z,9.20
2018-08-16T23:51:11.116Z,9.33
2018-08-16T23:53:47.257Z,8.27
2018-08-16T23:56:23.281Z,8.18
2018-08-16T23:58:59.284Z,8.00
